createdAt,value
2023-04-22T00:01:15.191Z,6.06
2023-04-22T00:03:45.387Z,6.05
2023-04-22T00:06:15.221Z,6.04
2023-04-22T00:08:44.465Z,6.04
2023-04-22T00:11:14.741Z,6.05
2023-04-22T00:13:43.910Z,6.04
2023-04-22T00:16:14.151Z,5.97
2023-04-22T00:18:44.424Z,5.93
2023-04-22T00:21:14.473Z,5.88
2023-04-22T00:23:46.159Z,5.81
2023-04-22T00:26:15.799Z,5.73
2023-04-22T00:28:46.050Z,5.65
2023-04-22T00:31:16.712Z,5.58
2023-04-22T00:33:46.860Z,5.52
2023-04-22T00:36:17.633Z,5.48
2023-04-22T00:38:54.306Z,5.46
2023-04-22T00:41:27.529Z,5.44
2023-04-22T00:44:00.536Z,5.43
2023-04-22T00:46:31.427Z,5.44
2023-04-22T00:49:01.679Z,5.44
2023-04-22T00:51:33.605Z,5.43
2023-04-22T00:54:05.027Z,5.38
2023-04-22T00:56:39.263Z,5.33
2023-04-22T00:59:09.956Z,5.28
2023-04-22T01:01:40.475Z,5.27
2023-04-22T01:04:13.114Z,5.26
2023-04-22T01:06:44.497Z,5.22
2023-04-22T01:09:14.952Z,5.16
2023-04-22T01:11:44.131Z,5.09
2023-04-22T01:14:14.592Z,5.02
2023-04-22T01:16:46.063Z,4.96
2023-04-22T01:19:17.400Z,4.94
2023-04-22T01:21:50.124Z,4.95
2023-04-22T01:24:21.666Z,4.90
2023-04-22T01:26:52.443Z,4.83
2023-04-22T01:29:22.210Z,4.78
2023-04-22T01:31:55.609Z,4.73
2023-04-22T01:34:30.631Z,4.65
2023-04-22T01:37:05.101Z,4.59
2023-04-22T01:39:37.824Z,4.55
2023-04-22T01:42:09.520Z,4.53
2023-04-22T01:44:40.763Z,4.48
2023-04-22T01:47:14.074Z,4.42
2023-04-22T01:49:44.968Z,4.37
2023-04-22T01:52:16.042Z,4.31
2023-04-22T01:54:47.020Z,4.26
2023-04-22T01:57:17.317Z,4.20
2023-04-22T01:59:48.106Z,4.13
2023-04-22T02:02:20.351Z,4.07
2023-04-22T02:04:52.976Z,4.02
2023-04-22T02:07:28.279Z,3.98
2023-04-22T02:09:59.645Z,3.96
2023-04-22T02:12:29.479Z,3.92
2023-04-22T02:14:59.873Z,3.87
2023-04-22T02:17:29.985Z,3.83
2023-04-22T02:19:59.456Z,3.76
2023-04-22T02:22:30.322Z,3.70
2023-04-22T02:25:05.426Z,3.64
2023-04-22T02:27:35.859Z,3.59
2023-04-22T02:30:11.643Z,3.56
2023-04-22T02:32:41.921Z,3.54
2023-04-22T02:35:13.442Z,3.54
2023-04-22T02:37:46.379Z,3.53
2023-04-22T02:40:18.362Z,3.52
2023-04-22T02:42:49.165Z,3.52
2023-04-22T02:45:19.768Z,3.53
2023-04-22T02:47:49.953Z,3.53
2023-04-22T02:50:19.450Z,3.54
2023-04-22T02:52:52.090Z,3.54
2023-04-22T02:55:25.482Z,3.53
2023-04-22T02:57:55.305Z,3.52
2023-04-22T03:00:25.824Z,3.49
2023-04-22T03:02:55.889Z,3.46
2023-04-22T03:05:34.354Z,3.45
2023-04-22T03:08:05.734Z,3.46
2023-04-22T03:10:36.992Z,3.47
2023-04-22T03:13:07.855Z,3.47
2023-04-22T03:15:41.273Z,3.47
2023-04-22T03:18:13.184Z,3.51
2023-04-22T03:20:44.112Z,3.58
2023-04-22T03:23:13.636Z,3.68
2023-04-22T03:25:44.915Z,3.75
2023-04-22T03:28:15.258Z,3.72
2023-04-22T03:30:44.939Z,3.69
2023-04-22T03:33:14.985Z,3.67
2023-04-22T03:35:55.879Z,3.68
2023-04-22T03:38:25.292Z,3.69
2023-04-22T03:40:56.637Z,3.71
2023-04-22T03:43:37.113Z,3.73
2023-04-22T03:46:11.744Z,3.76
2023-04-22T03:48:44.138Z,3.80
2023-04-22T03:51:35.146Z,3.83
2023-04-22T03:54:07.859Z,3.85
2023-04-22T03:56:41.348Z,3.90
2023-04-22T03:59:11.239Z,3.96
2023-04-22T04:01:41.601Z,4.05
2023-04-22T04:04:11.890Z,4.14
2023-04-22T04:06:47.438Z,4.18
2023-04-22T04:09:17.380Z,4.19
2023-04-22T04:11:49.125Z,4.19
2023-04-22T04:14:18.639Z,4.17
2023-04-22T04:16:49.633Z,4.14
2023-04-22T04:19:25.824Z,4.16
2023-04-22T04:21:55.947Z,4.20
2023-04-22T04:24:26.597Z,4.26
2023-04-22T04:27:00.158Z,4.35
2023-04-22T04:29:33.181Z,4.44
2023-04-22T04:32:11.417Z,4.54
2023-04-22T04:34:40.856Z,4.65
2023-04-22T04:37:10.142Z,4.76
2023-04-22T04:39:49.191Z,4.88
2023-04-22T04:42:19.274Z,5.01
2023-04-22T04:44:54.112Z,5.14
2023-04-22T04:47:23.597Z,5.28
2023-04-22T04:49:54.996Z,5.41
2023-04-22T04:52:24.389Z,5.56
2023-04-22T04:54:54.358Z,5.73
2023-04-22T04:57:23.270Z,5.89
2023-04-22T04:59:52.179Z,6.05
2023-04-22T05:02:28.870Z,6.23
2023-04-22T05:05:02.675Z,6.57
2023-04-22T05:07:32.824Z,6.93
2023-04-22T05:10:01.786Z,7.18
2023-04-22T05:12:31.152Z,7.27
2023-04-22T05:15:00.381Z,7.33
2023-04-22T05:17:29.538Z,7.35
2023-04-22T05:19:58.837Z,7.37
2023-04-22T05:22:27.535Z,7.36
2023-04-22T05:24:56.309Z,7.39
2023-04-22T05:27:25.060Z,7.60
2023-04-22T05:29:53.702Z,8.04
2023-04-22T05:32:25.727Z,8.56
2023-04-22T05:34:54.809Z,9.03
2023-04-22T05:37:23.564Z,9.52
2023-04-22T05:39:52.685Z,10.00
2023-04-22T05:42:23.657Z,10.37
2023-04-22T05:44:52.631Z,10.61
2023-04-22T05:47:21.422Z,10.95
2023-04-22T05:49:51.173Z,11.02
2023-04-22T05:52:33.702Z,11.02
2023-04-22T05:55:15.078Z,11.01
2023-04-22T05:57:44.901Z,11.00
2023-04-22T06:00:24.336Z,11.17
2023-04-22T06:03:00.683Z,11.30
2023-04-22T06:05:29.999Z,11.45
2023-04-22T06:07:59.511Z,11.42
2023-04-22T06:10:28.816Z,11.53
2023-04-22T06:12:57.512Z,11.74
2023-04-22T06:15:26.540Z,11.79
2023-04-22T06:17:55.364Z,12.14
2023-04-22T06:20:24.577Z,12.54
2023-04-22T06:22:53.591Z,12.74
2023-04-22T06:25:22.395Z,13.02
2023-04-22T06:27:51.781Z,13.68
2023-04-22T06:30:22.272Z,14.20
2023-04-22T06:32:52.638Z,14.59
2023-04-22T06:35:22.649Z,15.09
2023-04-22T06:37:51.771Z,15.67
2023-04-22T06:40:20.516Z,16.09
2023-04-22T06:43:11.233Z,16.12
2023-04-22T06:45:58.302Z,16.05
2023-04-22T06:48:46.102Z,16.38
2023-04-22T06:51:25.229Z,16.84
2023-04-22T06:53:54.056Z,17.17
2023-04-22T06:56:22.693Z,17.31
2023-04-22T06:58:51.207Z,17.67
2023-04-22T07:01:20.053Z,17.48
2023-04-22T07:03:49.578Z,17.15
2023-04-22T07:06:18.901Z,17.58
2023-04-22T07:08:47.659Z,17.46
2023-04-22T07:11:17.144Z,17.72
2023-04-22T07:14:01.942Z,18.16
2023-04-22T07:16:30.954Z,18.53
2023-04-22T07:18:59.843Z,18.76
2023-04-22T07:21:28.873Z,18.62
2023-04-22T07:23:57.507Z,18.21
2023-04-22T07:26:26.280Z,18.15
2023-04-22T07:28:54.968Z,18.26
2023-04-22T07:31:23.568Z,18.28
2023-04-22T07:33:52.301Z,18.55
2023-04-22T07:36:21.107Z,19.24
2023-04-22T07:38:49.823Z,19.87
2023-04-22T07:41:18.880Z,20.27
2023-04-22T07:43:47.492Z,20.43
2023-04-22T07:46:16.301Z,20.44
2023-04-22T07:48:45.382Z,20.83
2023-04-22T07:51:13.936Z,21.28
2023-04-22T07:53:42.696Z,21.45
2023-04-22T07:56:11.657Z,21.20
2023-04-22T07:58:40.238Z,20.91
2023-04-22T08:01:08.902Z,20.50
2023-04-22T08:03:38.017Z,20.88
2023-04-22T08:06:07.364Z,21.01
2023-04-22T08:08:36.042Z,21.01
2023-04-22T08:11:05.430Z,20.53
2023-04-22T08:13:34.238Z,20.25
2023-04-22T08:16:03.625Z,20.33
2023-04-22T08:18:32.300Z,20.54
2023-04-22T08:21:00.829Z,20.47
2023-04-22T08:23:29.697Z,20.62
2023-04-22T08:25:58.848Z,21.04
2023-04-22T08:28:27.461Z,21.30
2023-04-22T08:30:56.182Z,21.50
2023-04-22T08:33:27.134Z,21.46
2023-04-22T08:35:57.339Z,21.69
2023-04-22T08:38:26.772Z,22.48
2023-04-22T08:40:59.833Z,22.83
2023-04-22T08:43:29.003Z,23.12
2023-04-22T08:45:57.731Z,23.20
2023-04-22T08:48:27.068Z,23.70
2023-04-22T08:50:55.841Z,23.02
2023-04-22T08:53:24.865Z,22.81
2023-04-22T08:55:56.832Z,23.65
2023-04-22T08:58:25.846Z,24.08
2023-04-22T09:00:55.676Z,24.33
2023-04-22T09:03:24.710Z,24.38
2023-04-22T09:05:54.921Z,24.48
2023-04-22T09:08:24.520Z,24.49
2023-04-22T09:10:53.707Z,24.48
2023-04-22T09:13:24.462Z,24.29
2023-04-22T09:15:53.403Z,24.15
2023-04-22T09:18:22.060Z,23.50
2023-04-22T09:20:55.842Z,22.80
2023-04-22T09:23:24.516Z,21.83
2023-04-22T09:25:53.556Z,21.21
2023-04-22T09:28:22.201Z,20.57
2023-04-22T09:30:50.923Z,20.23
2023-04-22T09:33:19.519Z,20.23
2023-04-22T09:35:48.302Z,20.31
2023-04-22T09:38:16.954Z,20.94
2023-04-22T09:40:47.054Z,21.86
2023-04-22T09:43:18.440Z,22.28
2023-04-22T09:45:47.067Z,23.03
2023-04-22T09:48:18.378Z,23.53
2023-04-22T09:50:49.999Z,24.20
2023-04-22T09:53:20.417Z,24.54
2023-04-22T09:55:52.094Z,24.83
2023-04-22T09:58:24.129Z,25.26
2023-04-22T10:00:59.745Z,25.65
2023-04-22T10:03:28.565Z,25.27
2023-04-22T10:05:58.206Z,24.07
2023-04-22T10:08:27.354Z,24.11
2023-04-22T10:10:56.053Z,24.27
2023-04-22T10:13:24.548Z,23.95
2023-04-22T10:15:56.035Z,23.43
2023-04-22T10:18:29.949Z,23.23
2023-04-22T10:21:00.317Z,22.77
2023-04-22T10:23:33.196Z,22.79
2023-04-22T10:26:01.988Z,22.22
2023-04-22T10:28:31.169Z,21.81
2023-04-22T10:30:59.859Z,21.44
2023-04-22T10:33:29.300Z,21.28
2023-04-22T10:36:08.486Z,21.12
2023-04-22T10:38:55.284Z,21.18
2023-04-22T10:41:25.859Z,21.23
2023-04-22T10:44:06.554Z,21.28
2023-04-22T10:46:37.427Z,21.07
2023-04-22T10:49:11.647Z,20.99
2023-04-22T10:51:49.889Z,20.84
2023-04-22T10:54:32.231Z,20.77
2023-04-22T10:57:10.165Z,20.71
2023-04-22T10:59:43.600Z,21.19
2023-04-22T11:02:14.896Z,21.82
2023-04-22T11:04:46.219Z,22.51
2023-04-22T11:07:27.264Z,23.14
2023-04-22T11:10:16.073Z,23.66
2023-04-22T11:12:45.579Z,24.18
2023-04-22T11:15:16.855Z,24.63
2023-04-22T11:17:52.781Z,24.89
2023-04-22T11:20:21.900Z,25.13
2023-04-22T11:22:58.829Z,25.85
2023-04-22T11:25:27.526Z,26.51
2023-04-22T11:27:58.178Z,26.56
2023-04-22T11:30:28.990Z,26.66
2023-04-22T11:33:00.254Z,25.77
2023-04-22T11:35:31.799Z,25.91
2023-04-22T11:38:03.502Z,26.54
2023-04-22T11:40:36.840Z,26.02
2023-04-22T11:43:09.673Z,25.36
2023-04-22T11:45:39.777Z,24.99
2023-04-22T11:48:11.995Z,24.99
2023-04-22T11:50:44.392Z,25.61
2023-04-22T11:53:21.216Z,25.85
2023-04-22T11:55:51.743Z,25.95
2023-04-22T11:58:28.506Z,26.17
2023-04-22T12:00:59.718Z,26.47
2023-04-22T12:03:30.328Z,26.46
2023-04-22T12:06:05.144Z,26.33
2023-04-22T12:08:35.009Z,25.87
2023-04-22T12:11:05.938Z,25.96
2023-04-22T12:13:42.461Z,25.60
2023-04-22T12:16:20.959Z,24.66
2023-04-22T12:18:55.222Z,23.70
2023-04-22T12:21:26.141Z,23.31
2023-04-22T12:23:59.445Z,23.99
2023-04-22T12:26:28.498Z,24.56
2023-04-22T12:28:58.441Z,24.97
2023-04-22T12:31:28.248Z,25.35
2023-04-22T12:33:57.686Z,25.61
2023-04-22T12:36:26.749Z,25.73
2023-04-22T12:38:55.451Z,25.68
2023-04-22T12:41:24.201Z,25.35
2023-04-22T12:43:52.978Z,25.14
2023-04-22T12:46:21.768Z,25.05
2023-04-22T12:48:50.428Z,24.88
2023-04-22T12:51:19.232Z,24.57
2023-04-22T12:53:47.952Z,24.32
2023-04-22T12:56:16.806Z,24.14
2023-04-22T12:58:45.493Z,23.61
2023-04-22T13:01:14.067Z,23.28
2023-04-22T13:03:42.948Z,23.55
2023-04-22T13:06:12.091Z,23.55
2023-04-22T13:08:40.876Z,23.06
2023-04-22T13:11:09.517Z,22.60
2023-04-22T13:13:38.103Z,22.19
2023-04-22T13:16:06.820Z,21.96
2023-04-22T13:18:36.691Z,21.55
2023-04-22T13:21:06.518Z,21.27
2023-04-22T13:23:35.636Z,21.08
2023-04-22T13:26:04.575Z,20.70
2023-04-22T13:28:33.250Z,20.33
2023-04-22T13:31:02.281Z,20.12
2023-04-22T13:33:31.533Z,20.07
2023-04-22T13:36:01.388Z,19.93
2023-04-22T13:38:30.110Z,19.77
2023-04-22T13:41:00.102Z,19.72
2023-04-22T13:43:30.410Z,19.61
2023-04-22T13:45:59.359Z,19.58
2023-04-22T13:48:28.355Z,19.53
2023-04-22T13:50:57.107Z,19.40
2023-04-22T13:53:25.867Z,19.34
2023-04-22T13:55:54.532Z,19.40
2023-04-22T13:58:23.521Z,19.63
2023-04-22T14:00:52.487Z,19.81
2023-04-22T14:03:21.433Z,19.87
2023-04-22T14:05:50.286Z,20.01
2023-04-22T14:08:18.900Z,19.99
2023-04-22T14:10:47.907Z,19.81
2023-04-22T14:13:16.986Z,19.71
2023-04-22T14:15:45.657Z,19.66
2023-04-22T14:18:14.278Z,19.48
2023-04-22T14:20:45.334Z,19.44
2023-04-22T14:23:13.969Z,19.19
2023-04-22T14:25:44.779Z,19.02
2023-04-22T14:28:14.640Z,18.84
2023-04-22T14:30:44.083Z,18.67
2023-04-22T14:33:13.238Z,18.55
2023-04-22T14:35:42.129Z,18.41
2023-04-22T14:38:12.126Z,18.34
2023-04-22T14:40:40.933Z,18.28
2023-04-22T14:43:09.740Z,18.26
2023-04-22T14:45:38.284Z,18.21
2023-04-22T14:48:07.137Z,18.13
2023-04-22T14:50:36.528Z,18.06
2023-04-22T14:53:05.318Z,17.94
2023-04-22T14:55:35.793Z,17.82
2023-04-22T14:58:04.591Z,17.66
2023-04-22T15:00:33.598Z,17.56
2023-04-22T15:03:02.451Z,17.47
2023-04-22T15:05:31.568Z,17.42
2023-04-22T15:08:00.358Z,17.37
2023-04-22T15:10:29.560Z,17.36
2023-04-22T15:12:58.342Z,17.34
2023-04-22T15:15:27.355Z,17.39
2023-04-22T15:17:56.277Z,17.46
2023-04-22T15:20:25.064Z,17.53
2023-04-22T15:22:55.029Z,17.63
2023-04-22T15:25:25.158Z,17.76
2023-04-22T15:27:56.643Z,17.90
2023-04-22T15:30:25.892Z,17.98
2023-04-22T15:32:54.608Z,18.05
2023-04-22T15:35:24.309Z,18.11
2023-04-22T15:37:54.465Z,18.14
2023-04-22T15:40:23.059Z,18.16
2023-04-22T15:42:52.018Z,18.19
2023-04-22T15:45:22.221Z,18.21
2023-04-22T15:47:52.609Z,18.28
2023-04-22T15:50:23.704Z,18.23
2023-04-22T15:52:52.714Z,18.17
2023-04-22T15:55:21.911Z,18.01
2023-04-22T15:57:50.799Z,17.86
2023-04-22T16:00:19.748Z,17.76
2023-04-22T16:02:55.658Z,17.72
2023-04-22T16:05:25.398Z,17.68
2023-04-22T16:07:54.310Z,17.67
2023-04-22T16:10:23.573Z,17.60
2023-04-22T16:12:52.304Z,17.50
2023-04-22T16:15:23.009Z,17.41
2023-04-22T16:17:52.232Z,17.31
2023-04-22T16:20:20.998Z,17.23
2023-04-22T16:22:49.734Z,17.17
2023-04-22T16:25:18.809Z,17.11
2023-04-22T16:27:47.690Z,17.07
2023-04-22T16:30:16.627Z,17.01
2023-04-22T16:32:45.592Z,16.90
2023-04-22T16:35:14.342Z,16.75
2023-04-22T16:37:43.745Z,16.62
2023-04-22T16:40:12.748Z,16.39
2023-04-22T16:42:41.496Z,16.21
2023-04-22T16:45:10.532Z,15.96
2023-04-22T16:47:39.261Z,15.78
2023-04-22T16:50:12.411Z,15.60
2023-04-22T16:52:41.216Z,15.43
2023-04-22T16:55:10.089Z,15.27
2023-04-22T16:57:38.777Z,15.06
2023-04-22T17:00:08.180Z,14.87
2023-04-22T17:02:36.998Z,14.67
2023-04-22T17:05:06.070Z,14.49
2023-04-22T17:07:34.747Z,14.31
2023-04-22T17:10:03.645Z,14.17
2023-04-22T17:12:32.892Z,14.02
2023-04-22T17:15:01.537Z,13.89
2023-04-22T17:17:30.211Z,13.73
2023-04-22T17:19:59.011Z,13.63
2023-04-22T17:22:27.904Z,13.53
2023-04-22T17:24:58.940Z,13.41
2023-04-22T17:27:27.708Z,13.31
2023-04-22T17:29:56.709Z,13.17
2023-04-22T17:32:25.748Z,13.05
2023-04-22T17:34:54.573Z,12.91
2023-04-22T17:37:23.376Z,12.75
2023-04-22T17:39:52.077Z,12.57
2023-04-22T17:42:21.062Z,12.40
2023-04-22T17:44:50.996Z,12.27
2023-04-22T17:47:19.556Z,12.13
2023-04-22T17:49:48.354Z,12.05
2023-04-22T17:52:17.436Z,11.96
2023-04-22T17:54:46.512Z,11.87
2023-04-22T17:57:15.314Z,11.75
2023-04-22T17:59:44.104Z,11.60
2023-04-22T18:02:13.168Z,11.47
2023-04-22T18:04:42.205Z,11.36
2023-04-22T18:07:10.800Z,11.25
2023-04-22T18:09:39.692Z,11.16
2023-04-22T18:12:09.129Z,11.09
2023-04-22T18:14:37.720Z,11.02
2023-04-22T18:17:06.499Z,10.96
2023-04-22T18:19:35.021Z,10.90
2023-04-22T18:22:03.976Z,10.83
2023-04-22T18:24:32.608Z,10.74
2023-04-22T18:27:01.518Z,10.64
2023-04-22T18:29:30.104Z,10.55
2023-04-22T18:31:58.771Z,10.48
2023-04-22T18:34:29.327Z,10.41
2023-04-22T18:36:57.972Z,10.34
2023-04-22T18:39:26.620Z,10.29
2023-04-22T18:41:55.124Z,10.23
2023-04-22T18:44:23.836Z,10.17
2023-04-22T18:46:54.978Z,10.10
2023-04-22T18:49:23.459Z,10.04
2023-04-22T18:51:52.570Z,9.98
2023-04-22T18:54:21.127Z,9.90
2023-04-22T18:56:50.025Z,9.84
2023-04-22T18:59:18.917Z,9.77
2023-04-22T19:01:47.625Z,9.73
2023-04-22T19:04:16.799Z,9.68
2023-04-22T19:06:45.674Z,9.63
2023-04-22T19:09:14.373Z,9.59
2023-04-22T19:11:43.159Z,9.55
2023-04-22T19:14:14.193Z,9.52
2023-04-22T19:16:42.772Z,9.48
2023-04-22T19:19:12.387Z,9.45
2023-04-22T19:21:41.571Z,9.42
2023-04-22T19:24:10.266Z,9.40
2023-04-22T19:26:38.744Z,9.36
2023-04-22T19:29:07.329Z,9.32
2023-04-22T19:31:36.557Z,9.28
2023-04-22T19:34:05.125Z,9.24
2023-04-22T19:36:33.814Z,9.17
2023-04-22T19:39:02.476Z,9.09
2023-04-22T19:41:33.753Z,9.01
2023-04-22T19:44:02.406Z,8.95
2023-04-22T19:46:31.586Z,8.88
2023-04-22T19:49:00.804Z,8.81
2023-04-22T19:51:30.120Z,8.74
2023-04-22T19:53:59.104Z,8.69
2023-04-22T19:56:28.837Z,8.64
2023-04-22T19:58:59.187Z,8.58
2023-04-22T20:01:28.390Z,8.54
2023-04-22T20:03:57.963Z,8.48
2023-04-22T20:06:29.282Z,8.42
2023-04-22T20:09:00.381Z,8.37
2023-04-22T20:11:31.302Z,8.36
2023-04-22T20:14:00.976Z,8.36
2023-04-22T20:16:30.198Z,8.35
2023-04-22T20:18:59.054Z,8.33
2023-04-22T20:21:29.391Z,8.29
2023-04-22T20:24:01.032Z,8.24
2023-04-22T20:26:30.961Z,8.19
2023-04-22T20:29:00.828Z,8.14
2023-04-22T20:31:30.085Z,8.09
2023-04-22T20:33:58.824Z,8.04
2023-04-22T20:36:27.853Z,7.99
2023-04-22T20:38:59.462Z,7.95
2023-04-22T20:41:28.506Z,7.91
2023-04-22T20:43:57.906Z,7.90
2023-04-22T20:46:26.579Z,7.89
2023-04-22T20:48:55.487Z,7.88
2023-04-22T20:51:24.571Z,7.87
2023-04-22T20:53:55.259Z,7.85
2023-04-22T20:56:25.360Z,7.81
2023-04-22T20:58:53.701Z,7.78
2023-04-22T21:01:22.421Z,7.75
2023-04-22T21:03:52.811Z,7.75
2023-04-22T21:06:22.254Z,7.76
2023-04-22T21:08:51.434Z,7.76
2023-04-22T21:11:21.128Z,7.78
2023-04-22T21:13:51.244Z,7.78
2023-04-22T21:16:30.047Z,7.79
2023-04-22T21:19:00.935Z,7.81
2023-04-22T21:21:35.638Z,7.83
2023-04-22T21:24:07.916Z,7.84
2023-04-22T21:26:40.680Z,7.85
2023-04-22T21:29:09.774Z,7.88
2023-04-22T21:31:39.060Z,7.90
2023-04-22T21:34:10.130Z,7.90
2023-04-22T21:36:39.437Z,7.89
2023-04-22T21:39:08.723Z,7.88
2023-04-22T21:41:38.121Z,7.86
2023-04-22T21:44:07.429Z,7.81
2023-04-22T21:46:36.294Z,7.77
2023-04-22T21:49:05.317Z,7.73
2023-04-22T21:51:34.257Z,7.69
2023-04-22T21:54:03.193Z,7.65
2023-04-22T21:56:33.949Z,7.64
2023-04-22T21:59:02.735Z,7.63
2023-04-22T22:01:31.938Z,7.61
2023-04-22T22:04:01.419Z,7.58
2023-04-22T22:06:31.486Z,7.54
2023-04-22T22:09:00.149Z,7.48
2023-04-22T22:11:31.152Z,7.39
2023-04-22T22:14:01.072Z,7.30
2023-04-22T22:16:31.568Z,7.18
2023-04-22T22:19:03.305Z,7.05
2023-04-22T22:21:33.410Z,6.91
2023-04-22T22:24:02.908Z,6.75
2023-04-22T22:26:31.668Z,6.60
2023-04-22T22:29:00.861Z,6.47
2023-04-22T22:31:30.761Z,6.38
2023-04-22T22:34:00.188Z,6.29
2023-04-22T22:36:29.500Z,6.21
2023-04-22T22:38:59.238Z,6.16
2023-04-22T22:41:28.394Z,6.12
2023-04-22T22:43:57.363Z,6.10
2023-04-22T22:46:26.864Z,6.10
2023-04-22T22:48:56.580Z,6.08
2023-04-22T22:51:26.596Z,6.01
2023-04-22T22:53:55.857Z,5.94
2023-04-22T22:56:26.040Z,5.86
2023-04-22T22:58:55.429Z,5.82
2023-04-22T23:01:25.077Z,5.80
2023-04-22T23:03:54.723Z,5.81
2023-04-22T23:06:25.005Z,5.83
2023-04-22T23:08:54.637Z,5.85
2023-04-22T23:11:24.313Z,5.84
2023-04-22T23:13:54.036Z,5.83
2023-04-22T23:16:23.852Z,5.80
2023-04-22T23:18:53.212Z,5.76
2023-04-22T23:21:23.735Z,5.73
2023-04-22T23:23:54.432Z,5.72
2023-04-22T23:26:24.652Z,5.69
2023-04-22T23:28:54.951Z,5.68
2023-04-22T23:31:24.558Z,5.66
2023-04-22T23:33:57.565Z,5.63
2023-04-22T23:36:29.178Z,5.61
2023-04-22T23:38:58.941Z,5.56
2023-04-22T23:41:28.586Z,5.50
2023-04-22T23:43:57.975Z,5.43
2023-04-22T23:46:27.314Z,5.36
2023-04-22T23:48:59.486Z,5.32
2023-04-22T23:51:31.172Z,5.29
2023-04-22T23:54:01.644Z,5.26
2023-04-22T23:56:32.063Z,5.24
2023-04-22T23:59:02.708Z,5.24
